createdAt,value
2022-12-22T00:00:24.119Z,28.55
2022-12-22T00:03:09.745Z,27.17
2022-12-22T00:05:55.120Z,29.02
2022-12-22T00:08:40.469Z,27.02
2022-12-22T00:11:30.463Z,25.88
2022-12-22T00:14:16.548Z,27.58
2022-12-22T00:17:02.474Z,29.08
2022-12-22T00:19:48.406Z,25.48
2022-12-22T00:22:43.584Z,26.85
2022-12-22T00:25:35.043Z,26.40
2022-12-22T00:28:30.599Z,26.08
2022-12-22T00:31:16.012Z,27.55
2022-12-22T00:34:01.983Z,27.13
2022-12-22T00:36:47.873Z,28.45
2022-12-22T00:39:33.344Z,28.08
2022-12-22T00:42:18.750Z,27.63
2022-12-22T00:45:04.243Z,28.77
2022-12-22T00:47:50.393Z,29.17
2022-12-22T00:50:36.069Z,26.77
2022-12-22T00:53:22.511Z,25.63
2022-12-22T00:56:08.177Z,24.83
2022-12-22T00:58:54.851Z,25.30
2022-12-22T01:01:40.416Z,26.58
2022-12-22T01:04:29.304Z,25.83
2022-12-22T01:07:15.443Z,25.50
2022-12-22T01:10:08.403Z,28.50
2022-12-22T01:12:56.921Z,26.35
2022-12-22T01:15:44.594Z,27.63
2022-12-22T01:18:30.044Z,26.33
2022-12-22T01:21:16.019Z,30.67
2022-12-22T01:24:02.255Z,27.40
2022-12-22T01:26:47.692Z,27.90
2022-12-22T01:29:33.354Z,28.13
2022-12-22T01:32:18.897Z,27.35
2022-12-22T01:35:04.344Z,26.92
2022-12-22T01:37:49.709Z,28.30
2022-12-22T01:40:41.411Z,28.45
2022-12-22T01:43:44.135Z,27.13
2022-12-22T01:46:46.726Z,29.10
2022-12-22T01:49:51.201Z,28.50
2022-12-22T01:52:41.196Z,30.42
2022-12-22T01:55:35.738Z,30.70
2022-12-22T01:58:21.328Z,30.20
2022-12-22T02:01:06.731Z,33.03
2022-12-22T02:03:52.000Z,32.42
2022-12-22T02:06:50.311Z,30.95
2022-12-22T02:10:13.196Z,29.33
2022-12-22T02:13:18.539Z,34.53
2022-12-22T02:16:20.199Z,30.77
2022-12-22T02:19:53.071Z,32.08
2022-12-22T02:23:14.193Z,31.30
2022-12-22T02:26:17.852Z,33.17
2022-12-22T02:29:06.446Z,29.98
2022-12-22T02:31:58.677Z,30.67
2022-12-22T02:34:43.952Z,30.40
2022-12-22T02:38:01.016Z,32.72
2022-12-22T02:41:23.475Z,32.88
2022-12-22T02:44:52.795Z,31.15
2022-12-22T02:48:09.215Z,30.65
2022-12-22T02:51:05.349Z,34.45
2022-12-22T02:53:51.366Z,33.63
2022-12-22T02:56:37.206Z,36.22
2022-12-22T02:59:22.773Z,34.47
2022-12-22T03:02:08.697Z,34.75
2022-12-22T03:04:54.061Z,34.88
2022-12-22T03:07:39.559Z,36.65
2022-12-22T03:10:26.204Z,34.10
2022-12-22T03:13:11.686Z,33.67
2022-12-22T03:15:57.246Z,35.53
2022-12-22T03:18:42.512Z,39.25
2022-12-22T03:21:28.011Z,35.60
2022-12-22T03:24:13.398Z,38.22
2022-12-22T03:26:40.200Z,34.78
2022-12-22T03:29:07.406Z,34.92
2022-12-22T03:31:34.233Z,33.58
2022-12-22T03:34:01.024Z,32.70
2022-12-22T03:36:27.844Z,35.15
2022-12-22T03:38:54.731Z,33.65
2022-12-22T03:41:40.110Z,35.90
2022-12-22T03:44:25.550Z,34.22
2022-12-22T03:46:52.470Z,32.75
2022-12-22T03:49:20.018Z,29.95
2022-12-22T03:51:50.117Z,31.13
2022-12-22T03:54:20.706Z,32.60
2022-12-22T03:56:48.629Z,32.00
2022-12-22T03:59:16.375Z,34.42
2022-12-22T04:01:48.424Z,32.63
2022-12-22T04:04:17.828Z,34.55
2022-12-22T04:06:45.576Z,33.53
2022-12-22T04:09:12.864Z,30.42
2022-12-22T04:11:58.785Z,31.05
2022-12-22T04:14:33.069Z,36.78
2022-12-22T04:17:01.580Z,34.00
2022-12-22T04:19:28.432Z,34.67
2022-12-22T04:21:55.312Z,36.53
2022-12-22T04:24:22.377Z,39.28
2022-12-22T04:26:50.503Z,38.65
2022-12-22T04:29:17.473Z,41.05
2022-12-22T04:31:44.901Z,39.97
2022-12-22T04:34:11.720Z,41.83
2022-12-22T04:36:38.570Z,39.65
2022-12-22T04:39:05.410Z,43.15
2022-12-22T04:41:32.268Z,40.80
2022-12-22T04:43:59.107Z,42.08
2022-12-22T04:46:25.989Z,45.45
2022-12-22T04:48:57.842Z,44.50
2022-12-22T04:51:27.611Z,44.42
2022-12-22T04:53:54.432Z,44.25
2022-12-22T04:56:21.232Z,44.17
2022-12-22T04:58:48.076Z,42.92
2022-12-22T05:01:18.966Z,41.28
2022-12-22T05:03:47.000Z,40.30
2022-12-22T05:06:14.495Z,42.95
2022-12-22T05:08:41.804Z,42.60
2022-12-22T05:11:08.723Z,38.65
2022-12-22T05:13:35.703Z,43.20
2022-12-22T05:16:10.611Z,39.67
2022-12-22T05:18:39.142Z,42.05
2022-12-22T05:21:23.287Z,37.35
2022-12-22T05:23:50.933Z,40.45
2022-12-22T05:26:19.509Z,33.20
2022-12-22T05:28:47.850Z,32.78
2022-12-22T05:31:22.223Z,29.20
2022-12-22T05:33:49.616Z,33.33
2022-12-22T05:36:16.943Z,31.08
2022-12-22T05:38:46.815Z,31.42
2022-12-22T05:41:14.241Z,31.05
2022-12-22T05:43:41.123Z,33.85
2022-12-22T05:46:10.607Z,37.97
2022-12-22T05:48:39.874Z,40.65
2022-12-22T05:51:09.628Z,49.47
2022-12-22T05:53:38.516Z,42.25
2022-12-22T05:56:07.007Z,43.70
2022-12-22T05:58:35.380Z,49.15
2022-12-22T06:01:02.320Z,45.47
2022-12-22T06:03:30.522Z,47.58
2022-12-22T06:05:58.594Z,55.13
2022-12-22T06:08:26.626Z,52.83
2022-12-22T06:10:58.812Z,55.88
2022-12-22T06:13:26.827Z,51.08
2022-12-22T06:15:54.078Z,55.58
2022-12-22T06:18:21.429Z,55.53
2022-12-22T06:20:51.575Z,55.83
2022-12-22T06:23:18.408Z,51.58
2022-12-22T06:26:02.721Z,50.30
2022-12-22T06:28:29.669Z,53.42
2022-12-22T06:30:56.589Z,50.10
2022-12-22T06:33:23.860Z,52.25
2022-12-22T06:35:57.460Z,51.40
2022-12-22T06:38:26.352Z,48.35
2022-12-22T06:40:53.138Z,48.72
2022-12-22T06:43:19.969Z,48.97
2022-12-22T06:45:46.801Z,50.45
2022-12-22T06:48:14.072Z,46.38
2022-12-22T06:50:41.361Z,45.50
2022-12-22T06:53:09.033Z,40.83
2022-12-22T06:55:36.771Z,42.45
2022-12-22T06:58:04.920Z,44.20
2022-12-22T07:00:32.288Z,41.90
2022-12-22T07:02:59.421Z,38.25
2022-12-22T07:05:26.757Z,38.00
2022-12-22T07:07:53.795Z,34.95
2022-12-22T07:10:40.583Z,39.85
2022-12-22T07:13:19.077Z,53.63
2022-12-22T07:15:52.071Z,36.03
2022-12-22T07:18:24.861Z,34.63
2022-12-22T07:20:51.872Z,35.60
2022-12-22T07:23:18.676Z,32.60
2022-12-22T07:25:45.566Z,35.40
2022-12-22T07:28:18.373Z,32.17
2022-12-22T07:30:47.432Z,36.80
2022-12-22T07:33:14.187Z,37.03
2022-12-22T07:35:40.984Z,36.10
2022-12-22T07:38:07.864Z,35.03
2022-12-22T07:40:41.109Z,33.67
2022-12-22T07:43:08.631Z,41.05
2022-12-22T07:45:35.588Z,38.40
2022-12-22T07:48:23.865Z,41.80
2022-12-22T07:50:50.651Z,45.45
2022-12-22T07:53:17.523Z,37.13
2022-12-22T07:55:44.360Z,32.50
2022-12-22T07:58:11.141Z,23.30
2022-12-22T08:00:37.956Z,25.23
2022-12-22T08:03:04.876Z,23.13
2022-12-22T08:05:31.750Z,21.65
2022-12-22T08:07:58.663Z,23.77
2022-12-22T08:10:25.611Z,26.85
2022-12-22T08:12:52.445Z,28.45
2022-12-22T08:15:19.287Z,22.60
2022-12-22T08:17:46.178Z,32.42
2022-12-22T08:20:13.062Z,23.95
2022-12-22T08:22:39.841Z,22.65
2022-12-22T08:25:07.049Z,20.15
2022-12-22T08:27:43.842Z,18.23
2022-12-22T08:30:12.220Z,18.17
2022-12-22T08:32:41.032Z,17.10
2022-12-22T08:35:10.587Z,18.02
2022-12-22T08:37:44.496Z,21.92
2022-12-22T08:40:24.167Z,17.45
2022-12-22T08:42:59.067Z,16.33
2022-12-22T08:45:26.191Z,19.75
2022-12-22T08:47:53.043Z,17.52
2022-12-22T08:50:19.860Z,22.38
2022-12-22T08:52:46.624Z,17.77
2022-12-22T08:55:13.969Z,19.65
2022-12-22T08:57:40.971Z,17.70
2022-12-22T09:00:10.530Z,18.70
2022-12-22T09:02:38.502Z,18.30
2022-12-22T09:05:05.734Z,16.90
2022-12-22T09:07:32.561Z,21.42
2022-12-22T09:09:59.304Z,19.25
2022-12-22T09:12:26.128Z,16.70
2022-12-22T09:14:53.060Z,15.35
2022-12-22T09:17:19.913Z,15.73
2022-12-22T09:19:46.691Z,17.67
2022-12-22T09:22:13.600Z,16.40
2022-12-22T09:24:40.763Z,21.05
2022-12-22T09:27:09.151Z,15.60
2022-12-22T09:29:37.319Z,14.40
2022-12-22T09:32:05.286Z,16.80
2022-12-22T09:34:32.127Z,14.40
2022-12-22T09:36:59.057Z,13.75
2022-12-22T09:39:29.156Z,11.65
2022-12-22T09:41:58.140Z,14.43
2022-12-22T09:44:34.570Z,16.50
2022-12-22T09:47:25.709Z,15.20
2022-12-22T09:49:56.286Z,15.05
2022-12-22T09:52:33.827Z,17.20
2022-12-22T09:55:02.403Z,15.98
2022-12-22T09:57:32.875Z,13.88
2022-12-22T10:00:14.187Z,15.18
2022-12-22T10:03:14.932Z,16.40
2022-12-22T10:06:04.997Z,12.75
2022-12-22T10:08:38.097Z,12.52
2022-12-22T10:11:05.140Z,15.02
2022-12-22T10:13:32.190Z,13.45
2022-12-22T10:15:59.090Z,15.32
2022-12-22T10:18:29.673Z,13.70
2022-12-22T10:21:15.220Z,12.02
2022-12-22T10:23:48.130Z,16.40
2022-12-22T10:26:33.684Z,11.60
2022-12-22T10:29:14.084Z,17.65
2022-12-22T10:32:05.188Z,15.52
2022-12-22T10:34:32.551Z,10.88
2022-12-22T10:37:04.627Z,14.48
2022-12-22T10:39:35.391Z,14.13
2022-12-22T10:42:16.273Z,11.10
2022-12-22T10:44:49.602Z,10.73
2022-12-22T10:47:24.157Z,11.23
2022-12-22T10:52:32.168Z,11.95
2022-12-22T10:55:26.084Z,13.18
2022-12-22T10:58:17.756Z,12.48
2022-12-22T11:01:01.760Z,9.52
2022-12-22T11:03:31.765Z,11.63
2022-12-22T11:06:00.892Z,10.40
2022-12-22T11:08:31.394Z,9.88
2022-12-22T11:11:48.370Z,10.13
2022-12-22T11:15:03.469Z,8.82
2022-12-22T11:18:03.737Z,8.63
2022-12-22T11:20:47.276Z,8.93
2022-12-22T11:23:35.175Z,11.45
2022-12-22T11:26:37.076Z,10.50
2022-12-22T11:30:04.589Z,9.02
2022-12-22T11:32:51.517Z,12.05
2022-12-22T11:35:37.272Z,9.65
2022-12-22T11:38:37.144Z,11.27
2022-12-22T11:41:36.162Z,9.35
2022-12-22T11:44:45.450Z,10.10
2022-12-22T11:47:45.985Z,9.60
2022-12-22T11:51:07.080Z,10.80
2022-12-22T11:54:20.712Z,10.73
2022-12-22T11:57:15.129Z,8.68
2022-12-22T12:00:07.736Z,11.68
2022-12-22T12:03:10.832Z,12.18
2022-12-22T12:06:10.347Z,10.30
2022-12-22T12:09:13.536Z,7.43
2022-12-22T12:11:53.959Z,10.30
2022-12-22T12:14:56.351Z,8.65
2022-12-22T12:17:56.645Z,11.75
2022-12-22T12:20:57.691Z,9.75
2022-12-22T12:23:52.291Z,8.98
2022-12-22T12:26:30.777Z,12.10
2022-12-22T12:29:20.950Z,8.80
2022-12-22T12:32:44.055Z,10.52
2022-12-22T12:35:39.096Z,13.05
2022-12-22T12:42:27.051Z,14.07
2022-12-22T12:44:54.544Z,18.58
2022-12-22T12:47:27.794Z,15.50
2022-12-22T12:50:35.008Z,18.25
2022-12-22T12:53:10.732Z,20.65
2022-12-22T12:55:55.349Z,25.88
2022-12-22T12:58:40.086Z,22.13
2022-12-22T13:01:33.035Z,24.15
2022-12-22T13:04:03.773Z,23.65
2022-12-22T13:06:53.972Z,27.40
2022-12-22T13:09:49.890Z,28.75
2022-12-22T13:12:39.344Z,24.90
2022-12-22T13:15:30.464Z,24.38
2022-12-22T13:17:59.291Z,22.73
2022-12-22T13:20:32.791Z,25.15
2022-12-22T13:23:04.869Z,22.67
2022-12-22T13:25:47.904Z,24.60
2022-12-22T13:28:18.436Z,23.50
2022-12-22T13:30:56.721Z,22.10
2022-12-22T13:33:29.822Z,27.02
2022-12-22T13:35:59.490Z,26.77
2022-12-22T13:38:37.029Z,25.65
2022-12-22T13:41:24.793Z,23.98
2022-12-22T13:44:05.793Z,26.77
2022-12-22T13:46:37.916Z,27.13
2022-12-22T13:49:13.686Z,27.20
2022-12-22T13:51:48.220Z,26.77
2022-12-22T13:54:35.326Z,26.83
2022-12-22T13:57:12.458Z,26.15
2022-12-22T13:59:45.370Z,32.60
2022-12-22T14:02:12.561Z,28.73
2022-12-22T14:04:42.694Z,33.15
2022-12-22T14:07:19.039Z,33.28
2022-12-22T14:09:54.841Z,32.95
2022-12-22T14:12:25.895Z,36.30
2022-12-22T14:14:56.195Z,30.40
2022-12-22T14:17:29.177Z,29.58
2022-12-22T14:19:59.411Z,27.33
2022-12-22T14:22:44.855Z,28.60
2022-12-22T14:25:21.629Z,30.38
2022-12-22T14:27:55.764Z,30.17
2022-12-22T14:30:41.305Z,33.13
2022-12-22T14:33:37.422Z,28.60
2022-12-22T14:36:26.200Z,28.90
2022-12-22T14:38:59.089Z,30.75
2022-12-22T14:41:43.552Z,31.30
2022-12-22T14:44:20.489Z,34.05
2022-12-22T14:47:16.353Z,29.60
2022-12-22T14:49:56.968Z,30.33
2022-12-22T14:52:35.250Z,29.55
2022-12-22T14:55:06.592Z,32.63
2022-12-22T14:57:41.045Z,34.40
2022-12-22T15:00:22.986Z,34.45
2022-12-22T15:02:58.609Z,31.60
2022-12-22T15:05:32.888Z,33.45
2022-12-22T15:08:09.008Z,30.25
2022-12-22T15:10:44.420Z,28.58
2022-12-22T15:13:22.961Z,32.55
2022-12-22T15:15:53.295Z,29.70
2022-12-22T15:18:27.158Z,29.73
2022-12-22T15:20:57.172Z,31.05
2022-12-22T15:23:24.221Z,32.15
2022-12-22T15:25:51.201Z,31.92
2022-12-22T15:28:18.147Z,34.10
2022-12-22T15:30:45.189Z,32.08
2022-12-22T15:33:16.101Z,33.42
2022-12-22T15:35:44.447Z,34.25
2022-12-22T15:38:21.314Z,34.83
2022-12-22T15:40:49.353Z,36.22
2022-12-22T15:43:53.579Z,34.58
2022-12-22T15:46:07.067Z,38.78
2022-12-22T15:48:39.231Z,37.08
2022-12-22T15:51:12.464Z,35.00
2022-12-22T15:53:39.357Z,40.70
2022-12-22T15:56:17.413Z,37.13
2022-12-22T15:58:44.926Z,33.83
2022-12-22T16:01:12.729Z,35.58
2022-12-22T16:03:39.851Z,36.65
2022-12-22T16:06:13.631Z,35.30
2022-12-22T16:08:44.367Z,38.88
2022-12-22T16:11:11.928Z,38.78
2022-12-22T16:13:38.995Z,39.10
2022-12-22T16:16:06.745Z,38.17
2022-12-22T16:18:33.901Z,37.10
2022-12-22T16:21:17.312Z,40.03
2022-12-22T16:23:49.376Z,38.05
2022-12-22T16:26:20.244Z,37.80
2022-12-22T16:28:47.748Z,33.92
2022-12-22T16:31:22.088Z,33.47
2022-12-22T16:33:49.980Z,33.80
2022-12-22T16:36:17.338Z,34.55
2022-12-22T16:38:45.976Z,32.78
2022-12-22T16:41:22.922Z,31.65
2022-12-22T16:46:38.990Z,30.27
2022-12-22T16:49:09.092Z,30.50
2022-12-22T16:51:42.999Z,25.08
2022-12-22T16:54:14.440Z,26.38
2022-12-22T16:56:42.876Z,29.77
2022-12-22T16:59:09.962Z,25.33
2022-12-22T17:01:36.889Z,22.67
2022-12-22T17:04:30.095Z,24.02
2022-12-22T17:07:00.769Z,25.80
2022-12-22T17:09:45.370Z,22.48
2022-12-22T17:12:27.368Z,23.13
2022-12-22T17:14:56.433Z,25.00
2022-12-22T17:17:30.927Z,22.45
2022-12-22T17:20:00.024Z,19.73
2022-12-22T17:22:33.462Z,21.15
2022-12-22T17:25:05.184Z,22.60
2022-12-22T17:27:34.032Z,20.98
2022-12-22T17:30:03.430Z,20.90
2022-12-22T17:32:30.313Z,19.77
2022-12-22T17:34:57.134Z,21.77
2022-12-22T17:37:24.457Z,21.98
2022-12-22T17:40:00.569Z,21.17
2022-12-22T17:42:27.617Z,18.48
2022-12-22T17:44:54.588Z,18.23
2022-12-22T17:47:29.088Z,18.05
2022-12-22T17:49:58.583Z,18.65
2022-12-22T17:52:28.002Z,17.15
2022-12-22T17:54:55.151Z,18.48
2022-12-22T17:57:29.594Z,17.10
2022-12-22T17:59:56.467Z,16.80
2022-12-22T18:02:25.522Z,14.25
2022-12-22T18:04:53.222Z,16.90
2022-12-22T18:07:23.695Z,14.95
2022-12-22T18:09:58.993Z,15.73
2022-12-22T18:12:25.978Z,15.38
2022-12-22T18:14:53.378Z,15.93
2022-12-22T18:17:31.639Z,15.77
2022-12-22T18:20:02.200Z,14.55
2022-12-22T18:22:30.298Z,15.05
2022-12-22T18:24:57.711Z,14.65
2022-12-22T18:27:24.870Z,14.32
2022-12-22T18:29:51.908Z,14.48
2022-12-22T18:32:26.376Z,14.65
2022-12-22T18:34:54.283Z,15.88
2022-12-22T18:37:21.428Z,14.63
2022-12-22T18:39:48.319Z,16.55
2022-12-22T18:42:23.606Z,15.38
2022-12-22T18:44:51.146Z,17.92
2022-12-22T18:47:18.494Z,16.83
2022-12-22T18:49:45.562Z,18.30
2022-12-22T18:52:23.062Z,19.67
2022-12-22T18:54:50.077Z,17.65
2022-12-22T18:57:19.619Z,18.42
2022-12-22T18:59:48.164Z,18.55
2022-12-22T19:02:26.550Z,19.30
2022-12-22T19:04:54.812Z,19.02
2022-12-22T19:07:25.165Z,19.55
2022-12-22T19:09:52.318Z,19.50
2022-12-22T19:12:25.149Z,19.27
2022-12-22T19:14:57.868Z,20.73
2022-12-22T19:17:28.834Z,20.05
2022-12-22T19:19:56.469Z,18.73
2022-12-22T19:22:23.364Z,18.25
2022-12-22T19:24:51.499Z,17.60
2022-12-22T19:27:27.386Z,18.15
2022-12-22T19:30:03.398Z,18.30
2022-12-22T19:32:41.905Z,19.17
2022-12-22T19:35:18.679Z,17.90
2022-12-22T19:37:47.919Z,18.25
2022-12-22T19:40:17.521Z,20.23
2022-12-22T19:42:48.229Z,20.67
2022-12-22T19:45:21.905Z,19.52
2022-12-22T19:47:50.748Z,19.75
2022-12-22T19:50:23.381Z,18.92
2022-12-22T19:52:52.083Z,20.35
2022-12-22T19:55:19.334Z,19.90
2022-12-22T19:57:49.627Z,21.55
2022-12-22T20:00:21.452Z,21.80
2022-12-22T20:02:52.595Z,18.80
2022-12-22T20:05:22.654Z,18.70
2022-12-22T20:07:56.425Z,19.55
2022-12-22T20:10:25.021Z,20.58
2022-12-22T20:12:56.021Z,18.95
2022-12-22T20:15:37.318Z,18.40
2022-12-22T20:18:21.020Z,16.73
2022-12-22T20:21:07.109Z,17.42
2022-12-22T20:23:37.234Z,15.90
2022-12-22T20:26:13.663Z,17.27
2022-12-22T20:28:40.617Z,15.43
2022-12-22T20:31:10.817Z,15.88
2022-12-22T20:33:37.845Z,14.20
2022-12-22T20:36:21.657Z,15.32
2022-12-22T20:38:52.057Z,14.30
2022-12-22T20:41:21.012Z,14.20
2022-12-22T20:43:48.970Z,14.27
2022-12-22T20:46:21.271Z,17.15
2022-12-22T20:48:55.972Z,16.70
2022-12-22T20:51:27.190Z,14.48
2022-12-22T20:53:55.756Z,14.18
2022-12-22T20:56:32.253Z,15.55
2022-12-22T20:59:07.402Z,14.32
2022-12-22T21:01:34.329Z,14.55
2022-12-22T21:04:01.196Z,15.13
2022-12-22T21:06:36.285Z,15.45
2022-12-22T21:09:04.566Z,13.70
2022-12-22T21:11:32.074Z,15.50
2022-12-22T21:13:59.380Z,15.70
2022-12-22T21:16:30.899Z,13.18
2022-12-22T21:18:58.256Z,13.32
2022-12-22T21:21:25.420Z,12.95
2022-12-22T21:23:52.371Z,14.27
2022-12-22T21:26:32.292Z,11.55
2022-12-22T21:29:02.031Z,11.52
2022-12-22T21:31:29.133Z,12.35
2022-12-22T21:33:56.016Z,9.73
2022-12-22T21:36:32.122Z,10.18
2022-12-22T21:39:05.615Z,10.60
2022-12-22T21:41:50.917Z,12.00
2022-12-22T21:44:17.720Z,8.93
2022-12-22T21:46:47.035Z,9.50
2022-12-22T21:49:30.343Z,9.25
2022-12-22T21:51:57.531Z,8.70
2022-12-22T21:54:25.685Z,9.05
2022-12-22T21:56:54.499Z,8.65
2022-12-22T21:59:22.452Z,8.88
2022-12-22T22:01:52.503Z,8.88
2022-12-22T22:04:20.987Z,8.48
2022-12-22T22:06:48.023Z,8.55
2022-12-22T22:09:15.010Z,7.78
2022-12-22T22:12:00.730Z,7.47
2022-12-22T22:14:27.652Z,7.38
2022-12-22T22:16:54.640Z,7.60
2022-12-22T22:19:21.621Z,7.82
2022-12-22T22:21:48.553Z,7.60
2022-12-22T22:24:15.390Z,7.80
2022-12-22T22:26:45.789Z,7.97
2022-12-22T22:29:12.709Z,7.47
2022-12-22T22:31:41.062Z,8.43
2022-12-22T22:34:08.166Z,8.02
2022-12-22T22:36:34.939Z,8.90
2022-12-22T22:39:01.826Z,8.05
2022-12-22T22:41:31.082Z,8.30
2022-12-22T22:43:57.872Z,9.18
2022-12-22T22:46:24.824Z,9.05
2022-12-22T22:48:51.744Z,9.43
2022-12-22T22:51:18.504Z,9.30
2022-12-22T22:53:45.302Z,12.23
2022-12-22T22:56:12.074Z,11.65
2022-12-22T22:58:38.823Z,12.55
2022-12-22T23:01:09.991Z,14.48
2022-12-22T23:03:37.662Z,12.60
2022-12-22T23:06:08.452Z,15.30
2022-12-22T23:08:36.123Z,12.32
2022-12-22T23:11:05.186Z,13.10
2022-12-22T23:13:32.428Z,15.75
2022-12-22T23:16:02.468Z,15.23
2022-12-22T23:18:33.413Z,15.27
2022-12-22T23:21:03.620Z,14.30
2022-12-22T23:23:32.340Z,16.52
2022-12-22T23:25:59.639Z,14.20
2022-12-22T23:28:26.449Z,14.07
2022-12-22T23:30:53.972Z,15.00
2022-12-22T23:33:21.376Z,15.15
2022-12-22T23:35:50.112Z,15.50
2022-12-22T23:38:20.932Z,13.25
2022-12-22T23:40:53.640Z,14.85
2022-12-22T23:43:21.948Z,14.77
2022-12-22T23:45:48.797Z,13.23
2022-12-22T23:48:16.797Z,19.33
2022-12-22T23:50:46.842Z,17.50
2022-12-22T23:53:14.954Z,17.33
2022-12-22T23:55:47.103Z,19.45
2022-12-22T23:58:14.694Z,16.88
